Time;durP1;ratioP1;P1;durP2;ratioP2;P2;SDS_P1;SDS_P2;PMS_P1;PMS_P2;Temp;Humidity;BMP_temperature;BMP_pressure;BME280_temperature;BME280_humidity;BME280_pressure;Samples;Min_cycle;Max_cycle;Signal;HPM_P1;HPM_P2
2023/03/03 00:02:04;;;;;;;22.92;13.43;;;3.10;99.90;;;;;;5089341;28;20483;-63
2023/03/03 00:04:29;;;;;;;21.45;12.40;;;3.00;99.90;;;;;;5075990;28;20107;-63
2023/03/03 00:06:55;;;;;;;20.27;12.50;;;3.00;99.80;;;;;;5094472;28;20067;-63
2023/03/03 00:09:20;;;;;;;23.52;12.77;;;3.00;99.70;;;;;;5100579;28;20034;-64
2023/03/03 00:11:53;;;;;;;25.23;13.45;;;2.90;99.70;;;;;;5092691;28;20118;-63
2023/03/03 00:14:27;;;;;;;26.27;13.35;;;2.80;99.70;;;;;;5093762;28;20107;-64
2023/03/03 00:16:54;;;;;;;20.92;11.85;;;2.70;99.80;;;;;;5092791;28;20035;-64
2023/03/03 00:19:20;;;;;;;22.70;12.60;;;2.70;99.90;;;;;;5079289;28;20254;-64
2023/03/03 00:21:48;;;;;;;23.60;13.55;;;2.70;99.90;;;;;;5106173;28;20054;-64
2023/03/03 00:24:16;;;;;;;25.08;13.98;;;2.80;99.90;;;;;;5108316;28;20024;-64
2023/03/03 00:27:37;;;;;;;22.13;11.85;;;2.70;99.90;;;;;;5092470;28;20024;-64
2023/03/03 00:30:23;;;;;;;22.35;13.25;;;2.70;99.90;;;;;;5073251;28;20085;-64
2023/03/03 00:32:49;;;;;;;20.77;13.05;;;2.70;99.90;;;;;;5114142;28;20077;-64
2023/03/03 00:35:26;;;;;;;23.48;12.93;;;2.80;99.90;;;;;;5101130;28;20118;-64
2023/03/03 00:38:00;;;;;;;22.35;12.65;;;2.70;99.90;;;;;;5092169;28;20028;-64
2023/03/03 00:40:34;;;;;;;22.15;12.50;;;2.80;99.90;;;;;;5092045;28;20024;-64
2023/03/03 00:43:01;;;;;;;21.00;11.77;;;2.90;99.90;;;;;;5092905;28;20070;-64
2023/03/03 00:45:42;;;;;;;20.98;12.88;;;2.90;99.90;;;;;;5093305;28;20028;-63
2023/03/03 00:48:40;;;;;;;21.08;12.40;;;2.90;99.90;;;;;;5113735;28;20020;-63
2023/03/03 00:51:21;;;;;;;19.83;11.10;;;2.90;99.90;;;;;;5084695;28;20111;-64
2023/03/03 00:53:47;;;;;;;21.10;12.32;;;2.90;99.90;;;;;;5090402;28;20486;-64
2023/03/03 00:56:13;;;;;;;21.38;12.45;;;2.80;99.70;;;;;;5099359;28;20023;-64
2023/03/03 00:58:38;;;;;;;22.45;12.98;;;2.80;99.80;;;;;;5095794;28;20502;-63
2023/03/03 01:01:04;;;;;;;21.17;12.30;;;2.70;99.90;;;;;;5104431;28;20031;-64
2023/03/03 01:03:30;;;;;;;24.67;12.95;;;2.70;99.90;;;;;;5096313;28;20437;-63
2023/03/03 01:05:56;;;;;;;20.15;12.23;;;2.80;99.90;;;;;;5096854;28;20072;-64
2023/03/03 01:08:22;;;;;;;20.98;11.52;;;2.80;99.90;;;;;;5096601;28;20028;-63
2023/03/03 01:10:51;;;;;;;19.95;11.80;;;2.80;99.90;;;;;;5082512;28;20043;-63
2023/03/03 01:13:19;;;;;;;21.98;12.82;;;2.80;99.90;;;;;;5097911;28;20108;-63
2023/03/03 01:15:45;;;;;;;23.02;12.57;;;2.90;99.90;;;;;;5091717;28;20042;-63
2023/03/03 01:18:11;;;;;;;21.70;12.40;;;3.00;99.90;;;;;;5091918;28;20551;-63
2023/03/03 01:20:37;;;;;;;23.70;12.65;;;3.00;99.90;;;;;;5092988;28;20048;-63
2023/03/03 01:23:03;;;;;;;20.45;12.13;;;3.10;99.90;;;;;;5106916;28;20071;-63
2023/03/03 01:25:29;;;;;;;21.67;12.75;;;3.20;99.90;;;;;;5083263;28;20079;-64
2023/03/03 01:27:55;;;;;;;21.67;12.50;;;3.20;99.90;;;;;;5099382;28;20391;-63
2023/03/03 01:30:21;;;;;;;21.95;12.93;;;3.20;99.90;;;;;;5092541;28;20024;-63
2023/03/03 01:32:46;;;;;;;16.80;10.18;;;3.30;99.90;;;;;;5103660;28;20028;-63
2023/03/03 01:35:12;;;;;;;21.15;12.05;;;3.30;99.90;;;;;;5091511;28;20020;-65
2023/03/03 01:37:38;;;;;;;20.27;12.32;;;3.40;99.90;;;;;;5108627;28;20027;-65
2023/03/03 01:40:06;;;;;;;19.42;11.23;;;3.40;99.70;;;;;;5102309;28;20020;-63
2023/03/03 01:42:32;;;;;;;23.85;12.88;;;3.30;99.60;;;;;;5104107;28;20043;-64
2023/03/03 01:45:20;;;;;;;22.42;13.25;;;3.30;99.70;;;;;;5092283;28;20020;-65
2023/03/03 01:48:02;;;;;;;20.52;12.05;;;3.30;99.70;;;;;;5108947;28;20047;-64
2023/03/03 01:50:42;;;;;;;20.77;12.35;;;3.30;99.70;;;;;;5108507;28;20270;-64
2023/03/03 01:53:18;;;;;;;26.40;13.10;;;3.30;99.70;;;;;;5092098;28;20104;-64
2023/03/03 01:55:45;;;;;;;21.23;13.18;;;3.30;99.70;;;;;;5089528;28;20024;-63
2023/03/03 01:58:17;;;;;;;20.55;13.50;;;3.30;99.70;;;;;;5081891;28;20437;-63
2023/03/03 02:00:49;;;;;;;21.08;12.25;;;3.30;99.70;;;;;;5090999;28;20080;-63
2023/03/03 02:03:17;;;;;;;23.77;13.80;;;3.30;99.70;;;;;;5106654;28;20094;-63
2023/03/03 02:05:43;;;;;;;19.17;11.07;;;3.30;99.60;;;;;;5103412;28;20478;-64
2023/03/03 02:08:10;;;;;;;23.38;13.55;;;3.30;99.70;;;;;;5111799;28;20096;-64
2023/03/03 02:10:36;;;;;;;22.65;13.95;;;3.40;99.70;;;;;;5101720;28;20047;-64
2023/03/03 02:13:02;;;;;;;25.80;15.30;;;3.40;99.70;;;;;;5090366;28;20024;-64
2023/03/03 02:15:31;;;;;;;22.27;14.95;;;3.40;99.70;;;;;;5090969;28;20119;-64
2023/03/03 02:18:00;;;;;;;26.80;15.85;;;3.40;99.70;;;;;;5088056;28;20021;-64
2023/03/03 02:20:55;;;;;;;29.25;17.65;;;3.50;99.70;;;;;;5089845;28;20040;-64
2023/03/03 02:23:29;;;;;;;28.15;15.40;;;3.50;99.60;;;;;;5073659;28;20037;-63
2023/03/03 02:25:55;;;;;;;29.23;16.25;;;3.50;99.60;;;;;;5084032;28;20053;-63
2023/03/03 02:28:23;;;;;;;26.15;16.50;;;3.60;99.60;;;;;;5112279;28;20063;-63
2023/03/03 02:30:49;;;;;;;27.48;15.70;;;3.60;99.50;;;;;;5083666;28;20027;-63
2023/03/03 02:33:17;;;;;;;26.27;16.55;;;3.60;99.40;;;;;;5112183;28;20062;-64
2023/03/03 02:35:43;;;;;;;28.90;16.05;;;3.60;99.30;;;;;;5101423;28;20063;-64
2023/03/03 02:38:36;;;;;;;25.75;16.08;;;3.50;99.30;;;;;;5109187;28;20084;-64
2023/03/03 02:41:18;;;;;;;23.45;15.05;;;3.60;99.40;;;;;;5086707;28;20457;-63
2023/03/03 02:44:06;;;;;;;29.05;16.13;;;3.60;99.40;;;;;;5111777;28;20051;-63
2023/03/03 02:46:34;;;;;;;24.30;15.63;;;3.60;99.30;;;;;;5094425;28;20482;-64
2023/03/03 02:49:00;;;;;;;28.55;17.55;;;3.60;99.30;;;;;;5110191;28;20110;-64
2023/03/03 02:51:26;;;;;;;27.65;17.42;;;3.60;99.30;;;;;;5094950;28;20046;-64
2023/03/03 02:53:52;;;;;;;27.33;17.05;;;3.60;99.30;;;;;;5107224;28;20492;-64
2023/03/03 02:56:17;;;;;;;31.17;18.08;;;3.60;99.30;;;;;;5089589;28;20475;-63
2023/03/03 02:58:43;;;;;;;26.23;16.27;;;3.60;99.30;;;;;;5090457;28;20139;-63
2023/03/03 03:01:08;;;;;;;25.85;15.82;;;3.60;99.40;;;;;;5078612;28;20042;-64
2023/03/03 03:03:34;;;;;;;28.73;17.40;;;3.60;99.30;;;;;;5106280;28;20103;-63
2023/03/03 03:06:00;;;;;;;31.70;17.33;;;3.70;99.30;;;;;;5089553;28;20035;-64
2023/03/03 03:08:25;;;;;;;25.30;15.43;;;3.70;99.30;;;;;;5100780;28;20039;-64
2023/03/03 03:10:51;;;;;;;25.98;15.13;;;3.80;99.30;;;;;;5090916;28;20031;-64
2023/03/03 03:13:16;;;;;;;25.67;16.05;;;3.70;99.20;;;;;;5103094;28;20047;-63
2023/03/03 03:15:45;;;;;;;24.73;15.18;;;3.70;99.10;;;;;;5090028;28;20036;-63
2023/03/03 03:18:11;;;;;;;25.25;14.25;;;3.60;99.20;;;;;;5103275;28;20103;-63
2023/03/03 03:20:38;;;;;;;23.13;14.63;;;3.60;99.20;;;;;;5091434;28;20115;-63
2023/03/03 03:23:05;;;;;;;24.10;15.43;;;3.60;99.20;;;;;;5088569;28;20051;-63
2023/03/03 03:25:30;;;;;;;24.27;15.75;;;3.60;99.20;;;;;;5098974;28;20032;-64
2023/03/03 03:27:56;;;;;;;24.63;15.10;;;3.60;99.20;;;;;;5089257;28;20032;-63
2023/03/03 03:30:22;;;;;;;27.77;16.15;;;3.60;99.20;;;;;;5090560;28;20536;-63
2023/03/03 03:32:47;;;;;;;24.40;15.40;;;3.60;99.20;;;;;;5091088;28;20035;-63
2023/03/03 03:35:13;;;;;;;24.58;15.30;;;3.60;99.20;;;;;;5079477;28;20031;-63
2023/03/03 03:37:39;;;;;;;26.98;15.57;;;3.60;99.20;;;;;;5090893;28;20043;-63
2023/03/03 03:40:05;;;;;;;23.50;14.82;;;3.60;99.20;;;;;;5101308;28;20485;-63
2023/03/03 03:42:31;;;;;;;25.08;14.57;;;3.60;99.10;;;;;;5106579;28;20042;-63
2023/03/03 03:44:57;;;;;;;26.60;15.50;;;3.60;99.20;;;;;;5092286;28;20028;-63
2023/03/03 03:47:22;;;;;;;26.65;14.95;;;3.60;99.20;;;;;;5096884;28;20108;-63
2023/03/03 03:49:48;;;;;;;21.67;13.60;;;3.50;99.20;;;;;;5114743;28;20030;-63
2023/03/03 03:52:13;;;;;;;20.25;13.82;;;3.50;99.30;;;;;;5096656;28;20072;-64
2023/03/03 03:54:39;;;;;;;26.52;15.05;;;3.50;99.30;;;;;;5097213;28;20078;-64
2023/03/03 03:57:05;;;;;;;24.25;13.85;;;3.60;99.30;;;;;;5094604;28;20050;-64
2023/03/03 03:59:31;;;;;;;25.15;15.23;;;3.60;99.30;;;;;;5095903;28;20105;-63
2023/03/03 04:01:56;;;;;;;23.40;15.32;;;3.70;99.30;;;;;;5093838;28;20093;-63
2023/03/03 04:04:22;;;;;;;26.33;14.27;;;3.60;99.30;;;;;;5097357;28;20066;-63
2023/03/03 04:06:48;;;;;;;26.17;15.55;;;3.60;99.20;;;;;;5088235;28;20457;-63
2023/03/03 04:09:14;;;;;;;22.83;13.98;;;3.60;99.20;;;;;;5113319;28;20050;-64
2023/03/03 04:11:40;;;;;;;24.98;13.45;;;3.70;99.20;;;;;;5103680;28;20032;-64
2023/03/03 04:14:06;;;;;;;21.98;13.77;;;3.60;99.20;;;;;;5111161;28;20055;-64
2023/03/03 04:16:31;;;;;;;25.58;15.52;;;3.60;99.20;;;;;;5103474;28;20028;-64
2023/03/03 04:18:57;;;;;;;28.00;14.90;;;3.60;99.00;;;;;;5108264;28;20386;-64
2023/03/03 04:21:23;;;;;;;24.15;14.18;;;3.60;99.10;;;;;;5104030;28;20028;-63
2023/03/03 04:23:48;;;;;;;23.52;13.63;;;3.60;99.10;;;;;;5104828;28;20034;-64
2023/03/03 04:26:14;;;;;;;26.50;14.70;;;3.60;99.00;;;;;;5078651;28;20534;-64
2023/03/03 04:28:39;;;;;;;23.77;13.48;;;3.60;99.00;;;;;;5101730;28;20034;-64
2023/03/03 04:31:05;;;;;;;26.52;14.55;;;3.50;99.00;;;;;;5114543;28;20059;-64
2023/03/03 04:33:30;;;;;;;25.55;13.35;;;3.50;99.10;;;;;;5106690;27;20023;-64
2023/03/03 04:35:56;;;;;;;22.55;13.75;;;3.50;99.10;;;;;;5112460;28;20035;-64
2023/03/03 04:38:22;;;;;;;24.70;13.80;;;3.40;99.00;;;;;;5111111;28;20118;-64
2023/03/03 04:40:47;;;;;;;26.25;14.68;;;3.50;99.10;;;;;;5097743;28;20041;-64
2023/03/03 04:43:13;;;;;;;24.60;13.15;;;3.40;99.10;;;;;;5092876;28;20035;-64
2023/03/03 04:45:39;;;;;;;19.90;13.40;;;3.40;99.00;;;;;;5114460;28;20110;-64
2023/03/03 04:48:05;;;;;;;23.30;13.80;;;3.30;99.10;;;;;;5110517;28;20028;-63
2023/03/03 04:50:30;;;;;;;25.00;13.75;;;3.30;99.10;;;;;;5106249;28;20032;-64
2023/03/03 04:52:56;;;;;;;22.02;14.05;;;3.30;99.10;;;;;;5099659;28;20027;-63
2023/03/03 04:55:22;;;;;;;24.45;14.05;;;3.20;99.20;;;;;;5099432;28;20031;-63
2023/03/03 04:57:47;;;;;;;22.08;13.23;;;3.40;99.20;;;;;;5094868;28;20040;-63
2023/03/03 05:00:13;;;;;;;20.95;11.73;;;3.40;99.20;;;;;;5098531;28;20082;-63
2023/03/03 05:02:40;;;;;;;21.10;12.20;;;3.40;99.20;;;;;;5095393;28;20136;-64
2023/03/03 05:05:06;;;;;;;25.45;14.27;;;3.40;99.20;;;;;;5100418;28;20036;-64
2023/03/03 05:07:32;;;;;;;23.48;13.73;;;3.40;99.10;;;;;;5094886;28;20030;-64
2023/03/03 05:09:58;;;;;;;21.00;12.55;;;3.40;99.10;;;;;;5111001;28;20027;-64
2023/03/03 05:12:23;;;;;;;25.67;13.30;;;3.30;99.00;;;;;;5093243;28;20398;-64
2023/03/03 05:14:49;;;;;;;22.02;13.38;;;3.20;99.10;;;;;;5110074;28;20077;-64
2023/03/03 05:17:14;;;;;;;25.88;14.35;;;3.20;99.00;;;;;;5091261;28;20034;-64
2023/03/03 05:19:40;;;;;;;27.98;16.30;;;3.30;99.10;;;;;;5103466;28;20036;-64
2023/03/03 05:22:06;;;;;;;28.27;15.95;;;3.30;99.10;;;;;;5091398;28;20112;-64
2023/03/03 05:24:31;;;;;;;27.23;14.25;;;3.20;99.00;;;;;;5109243;28;20122;-64
2023/03/03 05:26:57;;;;;;;29.02;16.40;;;3.20;99.10;;;;;;5110815;27;20028;-64
2023/03/03 05:29:22;;;;;;;30.15;15.57;;;3.30;99.20;;;;;;5106678;28;20056;-64
2023/03/03 05:31:49;;;;;;;29.67;16.77;;;3.30;99.20;;;;;;5100354;28;20127;-67
2023/03/03 05:34:15;;;;;;;31.75;16.85;;;3.30;99.20;;;;;;5107755;28;20084;-67
2023/03/03 05:36:40;;;;;;;31.23;18.38;;;3.30;99.40;;;;;;5113377;28;20024;-67
2023/03/03 05:39:06;;;;;;;32.40;18.08;;;3.30;99.20;;;;;;5103948;28;20027;-67
2023/03/03 05:41:35;;;;;;;28.75;16.33;;;3.30;99.20;;;;;;5091485;28;20051;-67
2023/03/03 05:44:01;;;;;;;26.92;15.90;;;3.30;99.20;;;;;;5105210;28;20436;-67
2023/03/03 05:46:27;;;;;;;35.30;17.98;;;3.30;99.20;;;;;;5097356;28;20040;-68
2023/03/03 05:48:53;;;;;;;33.03;18.42;;;3.40;99.20;;;;;;5091454;28;20068;-68
2023/03/03 05:51:18;;;;;;;30.02;17.27;;;3.30;99.10;;;;;;5100485;28;20640;-68
2023/03/03 05:53:44;;;;;;;32.35;19.00;;;3.30;99.20;;;;;;5101826;28;20035;-68
2023/03/03 05:56:09;;;;;;;30.48;16.48;;;3.30;99.20;;;;;;5100806;28;20394;-68
2023/03/03 05:58:35;;;;;;;36.97;19.15;;;3.30;99.10;;;;;;5096686;28;20507;-68
2023/03/03 06:01:01;;;;;;;33.03;17.95;;;3.20;99.10;;;;;;5091864;28;20039;-68
2023/03/03 06:03:26;;;;;;;37.20;17.58;;;3.20;99.20;;;;;;5098106;28;20100;-67
2023/03/03 06:05:52;;;;;;;34.55;17.45;;;3.10;99.30;;;;;;5088834;28;20111;-66
2023/03/03 06:08:18;;;;;;;32.80;18.95;;;3.10;99.40;;;;;;5097515;28;20385;-67
2023/03/03 06:10:43;;;;;;;33.92;19.17;;;3.10;99.30;;;;;;5090651;28;20571;-67
2023/03/03 06:13:09;;;;;;;30.67;16.77;;;3.10;99.40;;;;;;5088894;28;20028;-67
2023/03/03 06:15:35;;;;;;;32.05;16.15;;;3.10;99.40;;;;;;5091537;28;20032;-67
2023/03/03 06:18:00;;;;;;;32.90;16.60;;;3.10;99.40;;;;;;5089705;28;20043;-67
2023/03/03 06:20:26;;;;;;;30.88;17.25;;;3.10;99.40;;;;;;5091437;28;20035;-68
2023/03/03 06:22:51;;;;;;;33.42;18.77;;;3.10;99.40;;;;;;5080540;28;20442;-68
2023/03/03 06:25:17;;;;;;;31.48;16.63;;;3.20;99.40;;;;;;5091100;28;20089;-68
2023/03/03 06:27:43;;;;;;;33.63;18.95;;;3.20;99.40;;;;;;5090821;28;20036;-68
2023/03/03 06:30:10;;;;;;;31.48;18.25;;;3.20;99.40;;;;;;5092845;28;20024;-68
2023/03/03 06:32:35;;;;;;;36.78;18.35;;;3.20;99.40;;;;;;5070171;28;20134;-68
2023/03/03 06:35:01;;;;;;;35.17;17.90;;;3.20;99.30;;;;;;5109242;28;20187;-68
2023/03/03 06:37:26;;;;;;;32.55;17.92;;;3.10;99.40;;;;;;5095320;28;20039;-68
2023/03/03 06:39:52;;;;;;;31.90;16.80;;;3.10;99.50;;;;;;5071774;28;20093;-67
2023/03/03 06:42:18;;;;;;;30.02;16.65;;;3.20;99.60;;;;;;5084962;28;20398;-67
2023/03/03 06:44:44;;;;;;;37.20;18.60;;;3.10;99.50;;;;;;5104988;28;20531;-68
2023/03/03 06:47:10;;;;;;;30.55;16.25;;;2.90;99.50;;;;;;5090365;28;20909;-68
2023/03/03 06:49:35;;;;;;;33.08;17.30;;;2.90;99.50;;;;;;5106211;28;20036;-69
2023/03/03 06:52:10;;;;;;;29.20;15.77;;;2.90;99.60;;;;;;5090654;28;20419;-68
2023/03/03 06:54:35;;;;;;;33.58;17.20;;;3.00;99.70;;;;;;5094606;28;20043;-68
2023/03/03 06:57:14;;;;;;;32.58;17.58;;;3.00;99.70;;;;;;5090122;28;20047;-70
2023/03/03 06:59:40;;;;;;;29.55;15.90;;;3.00;99.70;;;;;;5097246;28;20036;-70
2023/03/03 07:02:14;;;;;;;30.45;16.10;;;2.90;99.50;;;;;;5074165;28;20502;-68
2023/03/03 07:04:40;;;;;;;31.95;17.58;;;2.90;99.70;;;;;;5100923;28;20019;-68
2023/03/03 07:07:17;;;;;;;31.40;17.25;;;2.90;99.70;;;;;;5090574;28;20081;-68
2023/03/03 07:09:45;;;;;;;29.55;15.73;;;3.00;99.90;;;;;;5104377;28;20024;-67
2023/03/03 07:12:14;;;;;;;32.17;17.10;;;3.00;99.80;;;;;;5091625;28;20111;-66
2023/03/03 07:14:45;;;;;;;30.40;16.73;;;3.10;99.70;;;;;;5093941;28;20024;-67
2023/03/03 07:17:19;;;;;;;34.40;18.77;;;3.10;99.70;;;;;;5085298;28;20490;-68
2023/03/03 07:19:45;;;;;;;33.25;18.55;;;3.20;99.70;;;;;;5099779;28;20293;-69
2023/03/03 07:22:20;;;;;;;34.85;18.92;;;3.30;99.70;;;;;;5084792;28;20392;-68
2023/03/03 07:24:51;;;;;;;32.72;16.80;;;3.10;99.60;;;;;;5088869;28;20452;-69
2023/03/03 07:27:29;;;;;;;35.83;18.20;;;3.20;99.60;;;;;;5093617;28;20040;-67
2023/03/03 07:30:12;;;;;;;35.60;18.60;;;3.10;99.60;;;;;;5094268;28;20032;-67
2023/03/03 07:32:45;;;;;;;32.58;17.30;;;3.00;99.60;;;;;;5075879;28;20028;-67
2023/03/03 07:35:28;;;;;;;31.83;17.02;;;3.10;99.70;;;;;;5094774;28;20024;-67
2023/03/03 07:37:54;;;;;;;32.38;17.67;;;3.10;99.80;;;;;;5106117;28;20024;-67
2023/03/03 07:40:43;;;;;;;32.58;17.92;;;3.10;99.80;;;;;;5094151;28;21395;-68
2023/03/03 07:43:27;;;;;;;38.05;18.10;;;3.20;99.70;;;;;;5112015;28;20031;-68
2023/03/03 07:46:00;;;;;;;35.60;18.30;;;3.20;99.70;;;;;;5088585;28;20024;-68
2023/03/03 07:48:40;;;;;;;35.15;19.40;;;3.30;99.80;;;;;;5100667;28;20028;-66
2023/03/03 07:51:21;;;;;;;39.03;19.52;;;3.40;99.90;;;;;;5077958;28;20089;-66
2023/03/03 07:53:47;;;;;;;35.53;19.30;;;3.40;99.70;;;;;;5090102;28;20024;-66
2023/03/03 07:56:34;;;;;;;41.65;22.33;;;3.40;99.70;;;;;;5091519;28;20032;-67
2023/03/03 07:59:15;;;;;;;34.45;20.75;;;3.40;99.80;;;;;;5094982;28;20070;-67
2023/03/03 08:01:43;;;;;;;38.90;19.50;;;3.40;99.80;;;;;;5093941;28;20071;-67
2023/03/03 08:04:35;;;;;;;37.83;19.95;;;3.40;99.90;;;;;;5090934;28;20015;-67
2023/03/03 08:07:01;;;;;;;44.38;20.52;;;3.40;99.90;;;;;;5093913;28;20082;-67
2023/03/03 08:09:43;;;;;;;39.35;20.55;;;3.50;99.90;;;;;;5079600;28;20024;-67
2023/03/03 08:12:21;;;;;;;40.17;19.25;;;3.50;99.80;;;;;;5087670;28;20020;-66
2023/03/03 08:14:46;;;;;;;33.22;18.88;;;3.50;99.80;;;;;;5093161;28;20028;-66
2023/03/03 08:17:18;;;;;;;41.47;20.85;;;3.50;99.80;;;;;;5096030;28;20479;-66
2023/03/03 08:19:44;;;;;;;38.85;19.90;;;3.60;99.80;;;;;;5090482;28;20067;-66
2023/03/03 08:22:39;;;;;;;37.58;19.25;;;3.60;99.80;;;;;;5109193;28;20074;-66
2023/03/03 08:25:05;;;;;;;37.78;19.85;;;3.60;99.70;;;;;;5100013;28;20081;-66
2023/03/03 08:27:30;;;;;;;44.78;22.00;;;3.70;99.70;;;;;;5101104;28;20139;-67
2023/03/03 08:29:56;;;;;;;42.03;21.17;;;3.70;99.60;;;;;;5099536;28;20030;-66
2023/03/03 08:32:22;;;;;;;42.83;22.42;;;3.70;99.60;;;;;;5091419;28;20028;-66
2023/03/03 08:34:47;;;;;;;44.00;22.40;;;3.70;99.70;;;;;;5091212;28;20063;-66
2023/03/03 08:37:13;;;;;;;42.97;22.35;;;3.70;99.70;;;;;;5093107;28;20106;-68
2023/03/03 08:39:38;;;;;;;40.42;21.10;;;3.80;99.80;;;;;;5103750;28;20027;-67
2023/03/03 08:42:04;;;;;;;43.05;21.70;;;3.80;99.70;;;;;;5088634;28;20035;-66
2023/03/03 08:44:30;;;;;;;35.58;18.33;;;3.80;99.60;;;;;;5091679;28;20563;-66
2023/03/03 08:46:55;;;;;;;35.80;17.10;;;3.90;99.60;;;;;;5093975;28;20486;-66
2023/03/03 08:49:21;;;;;;;32.65;16.95;;;3.90;99.50;;;;;;5086743;28;20032;-67
2023/03/03 08:51:46;;;;;;;24.63;14.02;;;3.90;99.40;;;;;;5084512;28;20378;-66
2023/03/03 08:54:12;;;;;;;28.45;15.50;;;3.90;99.50;;;;;;5085446;28;20047;-67
2023/03/03 08:56:38;;;;;;;30.33;15.20;;;4.00;99.50;;;;;;5079513;28;20024;-68
2023/03/03 08:59:03;;;;;;;28.23;16.98;;;4.00;99.50;;;;;;5106095;28;20486;-67
2023/03/03 09:01:31;;;;;;;33.05;17.50;;;4.10;99.40;;;;;;5108815;28;20498;-67
2023/03/03 09:03:56;;;;;;;29.73;17.10;;;4.00;99.30;;;;;;5091955;28;20024;-65
2023/03/03 09:06:22;;;;;;;30.45;17.67;;;3.90;99.30;;;;;;5098755;28;20040;-67
2023/03/03 09:08:49;;;;;;;33.15;16.95;;;3.90;99.40;;;;;;5092153;28;20028;-67
2023/03/03 09:11:22;;;;;;;30.08;17.65;;;3.90;99.50;;;;;;5106373;28;20510;-67
2023/03/03 09:13:52;;;;;;;26.77;15.40;;;4.00;99.70;;;;;;5091576;28;20038;-67
2023/03/03 09:16:19;;;;;;;29.60;16.00;;;4.10;99.50;;;;;;5109424;28;20031;-67
2023/03/03 09:18:45;;;;;;;32.38;16.30;;;4.20;99.50;;;;;;5106766;28;20107;-67
2023/03/03 09:21:31;;;;;;;27.83;16.83;;;4.30;99.40;;;;;;5077945;28;20118;-67
2023/03/03 09:23:58;;;;;;;31.42;17.90;;;4.50;99.30;;;;;;5088914;28;20031;-67
2023/03/03 09:26:33;;;;;;;30.58;18.27;;;4.50;99.20;;;;;;5095008;28;20066;-67
2023/03/03 09:29:14;;;;;;;32.75;18.23;;;4.60;99.20;;;;;;5092867;28;20365;-67
2023/03/03 09:31:52;;;;;;;32.08;17.70;;;4.60;99.10;;;;;;5102375;28;20024;-67
2023/03/03 09:34:31;;;;;;;26.95;16.42;;;4.70;99.10;;;;;;5093673;28;20038;-67
2023/03/03 09:36:58;;;;;;;28.80;17.35;;;4.80;99.10;;;;;;5092717;27;20542;-67
2023/03/03 09:39:27;;;;;;;33.80;18.58;;;4.80;99.00;;;;;;5086866;28;20027;-68
2023/03/03 09:42:05;;;;;;;32.85;18.77;;;4.90;98.90;;;;;;5094240;27;20036;-67
2023/03/03 09:44:41;;;;;;;30.30;18.35;;;5.00;99.00;;;;;;5079531;28;20024;-68
2023/03/03 09:47:26;;;;;;;27.75;15.63;;;5.10;98.80;;;;;;5094171;28;20036;-68
2023/03/03 09:50:14;;;;;;;24.33;14.50;;;5.10;98.70;;;;;;5078466;28;20066;-67
2023/03/03 09:53:03;;;;;;;24.80;14.25;;;5.20;98.70;;;;;;5075230;28;20037;-67
2023/03/03 09:55:42;;;;;;;25.27;14.85;;;5.20;98.50;;;;;;5091698;28;20043;-68
2023/03/03 09:58:25;;;;;;;25.67;16.05;;;5.30;98.40;;;;;;5103455;28;20135;-67
2023/03/03 10:01:22;;;;;;;25.63;15.15;;;5.30;98.40;;;;;;5100900;28;20127;-68
2023/03/03 10:04:00;;;;;;;26.42;16.55;;;5.40;98.40;;;;;;5091306;28;20099;-67
2023/03/03 10:07:06;;;;;;;27.55;16.77;;;5.50;98.40;;;;;;5069702;28;20102;-68
2023/03/03 10:09:47;;;;;;;26.45;15.10;;;5.60;98.30;;;;;;5052806;28;20032;-67
2023/03/03 10:12:18;;;;;;;24.42;14.95;;;5.70;98.30;;;;;;5092672;28;20028;-68
2023/03/03 10:15:02;;;;;;;27.42;17.38;;;5.70;98.20;;;;;;5095036;28;20038;-68
2023/03/03 10:17:48;;;;;;;20.52;13.82;;;5.80;98.10;;;;;;5105071;28;20023;-68
2023/03/03 10:20:46;;;;;;;21.13;14.48;;;5.90;98.00;;;;;;5107655;28;20028;-68
2023/03/03 10:23:24;;;;;;;21.33;13.90;;;6.00;97.80;;;;;;5095792;28;20040;-68
2023/03/03 10:26:04;;;;;;;19.95;11.88;;;6.00;97.70;;;;;;5107498;28;20110;-68
2023/03/03 10:28:47;;;;;;;21.25;13.30;;;6.00;97.70;;;;;;5110021;28;20027;-68
2023/03/03 10:31:22;;;;;;;25.15;15.90;;;6.20;97.70;;;;;;5106109;28;20070;-67
2023/03/03 10:34:22;;;;;;;26.88;16.10;;;6.10;97.50;;;;;;5103362;28;20024;-67
2023/03/03 10:37:17;;;;;;;23.13;14.27;;;6.10;97.30;;;;;;5093949;28;20054;-68
2023/03/03 10:40:04;;;;;;;16.67;11.40;;;6.20;97.30;;;;;;5085392;28;20475;-68
2023/03/03 10:42:53;;;;;;;17.90;10.90;;;6.20;97.30;;;;;;5106926;28;20047;-68
2023/03/03 10:45:35;;;;;;;19.95;12.02;;;6.20;97.30;;;;;;5095331;28;20079;-67
2023/03/03 10:48:40;;;;;;;18.27;11.52;;;6.20;97.30;;;;;;5100870;28;20131;-68
2023/03/03 10:51:20;;;;;;;17.25;10.82;;;6.30;97.20;;;;;;5100223;28;20028;-67
2023/03/03 10:54:16;;;;;;;17.73;11.43;;;6.30;97.10;;;;;;5089052;28;20036;-67
2023/03/03 10:56:54;;;;;;;15.43;10.38;;;6.30;96.90;;;;;;5110626;28;20028;-66
2023/03/03 10:59:41;;;;;;;18.50;12.20;;;6.30;96.90;;;;;;5073516;28;20181;-67
2023/03/03 11:02:36;;;;;;;17.48;11.45;;;6.30;96.90;;;;;;5098871;28;20035;-67
2023/03/03 11:05:40;;;;;;;20.08;11.82;;;6.30;96.80;;;;;;5077962;28;20380;-67
2023/03/03 11:08:15;;;;;;;18.80;12.50;;;6.30;96.70;;;;;;5030214;28;20037;-67
2023/03/03 11:10:54;;;;;;;19.23;13.05;;;6.30;96.80;;;;;;5102616;28;20035;-67
2023/03/03 11:13:32;;;;;;;23.10;14.73;;;6.30;96.80;;;;;;5104969;28;20084;-68
2023/03/03 11:15:57;;;;;;;20.05;12.13;;;6.40;96.70;;;;;;5110498;28;20024;-68
2023/03/03 11:18:31;;;;;;;22.23;12.63;;;6.40;96.70;;;;;;5108833;28;20031;-68
2023/03/03 11:21:03;;;;;;;19.20;12.85;;;6.40;96.70;;;;;;5097233;28;20034;-67
2023/03/03 11:23:42;;;;;;;19.27;12.35;;;6.40;96.50;;;;;;5113932;28;20039;-67
2023/03/03 11:26:27;;;;;;;23.30;15.15;;;6.40;96.80;;;;;;5102969;28;20072;-67
2023/03/03 11:29:20;;;;;;;28.70;17.38;;;6.50;96.60;;;;;;5108308;28;20030;-68
2023/03/03 11:31:56;;;;;;;34.42;19.52;;;6.40;96.60;;;;;;5109023;28;20143;-68
2023/03/03 11:34:43;;;;;;;33.65;20.17;;;6.40;96.50;;;;;;5100275;28;20024;-68
2023/03/03 11:37:12;;;;;;;32.53;20.83;;;6.30;96.70;;;;;;5105027;28;20032;-68
2023/03/03 11:39:41;;;;;;;33.60;20.45;;;6.40;96.80;;;;;;5093135;28;20380;-67
2023/03/03 11:42:21;;;;;;;37.00;21.35;;;6.30;97.00;;;;;;5096367;28;20048;-67
2023/03/03 11:44:51;;;;;;;35.90;21.52;;;6.30;96.80;;;;;;5093339;28;20034;-67
2023/03/03 11:47:25;;;;;;;31.98;19.75;;;6.40;96.90;;;;;;5106142;28;20043;-68
2023/03/03 11:50:19;;;;;;;30.30;18.42;;;6.50;96.80;;;;;;5096509;28;20036;-68
2023/03/03 11:53:22;;;;;;;29.42;17.08;;;6.60;96.80;;;;;;5101856;28;20039;-68
2023/03/03 11:55:55;;;;;;;24.50;15.73;;;6.60;96.70;;;;;;5092313;28;20505;-69
2023/03/03 11:58:26;;;;;;;30.17;17.23;;;6.70;96.70;;;;;;5108867;28;20151;-68
2023/03/03 12:01:03;;;;;;;25.58;16.45;;;6.70;96.60;;;;;;5093220;28;20039;-68
2023/03/03 12:03:57;;;;;;;29.83;18.27;;;6.80;96.60;;;;;;5108236;28;20316;-68
2023/03/03 12:07:01;;;;;;;27.75;17.40;;;6.80;96.60;;;;;;5097700;28;20039;-68
2023/03/03 12:09:49;;;;;;;34.88;19.10;;;6.90;96.50;;;;;;5099402;28;20111;-68
2023/03/03 12:12:44;;;;;;;33.40;19.58;;;6.90;96.50;;;;;;5094589;28;20016;-68
2023/03/03 12:15:43;;;;;;;30.73;19.25;;;6.90;96.60;;;;;;5099202;28;20498;-69
2023/03/03 12:18:30;;;;;;;26.25;16.63;;;6.80;96.40;;;;;;5107195;28;20673;-67
2023/03/03 12:21:15;;;;;;;26.00;16.30;;;6.90;96.40;;;;;;5091799;28;20523;-67
2023/03/03 12:23:59;;;;;;;;;;;6.90;96.30;;;;;;5106579;28;20494;-69
2023/03/03 12:26:39;;;;;;;25.45;15.20;;;6.90;96.30;;;;;;5095242;28;20373;-67
2023/03/03 12:29:18;;;;;;;26.02;15.25;;;6.90;96.30;;;;;;5086548;28;20024;-67
2023/03/03 12:31:46;;;;;;;22.23;13.65;;;6.90;96.40;;;;;;5086161;28;20028;-67
2023/03/03 12:34:35;;;;;;;25.35;13.88;;;6.90;96.30;;;;;;5090094;28;20020;-67
2023/03/03 12:37:36;;;;;;;20.52;12.88;;;7.00;96.40;;;;;;5091215;28;20024;-68
2023/03/03 12:40:12;;;;;;;18.80;11.15;;;7.00;96.40;;;;;;5058808;28;20035;-67
2023/03/03 12:42:50;;;;;;;21.30;12.50;;;7.00;96.40;;;;;;5103233;28;20039;-68
2023/03/03 12:45:54;;;;;;;22.33;12.80;;;7.10;96.40;;;;;;5104804;28;20414;-68
2023/03/03 12:48:31;;;;;;;21.20;12.02;;;7.10;96.30;;;;;;5076525;28;20047;-68
2023/03/03 12:51:05;;;;;;;19.13;11.02;;;7.10;96.30;;;;;;5099051;28;20020;-67
2023/03/03 12:53:36;;;;;;;20.75;11.90;;;7.10;96.20;;;;;;5092302;28;20024;-66
2023/03/03 12:56:07;;;;;;;18.88;11.82;;;7.10;96.20;;;;;;5100336;28;20020;-67
2023/03/03 12:58:51;;;;;;;21.25;13.82;;;7.10;96.20;;;;;;5095951;28;20051;-68
2023/03/03 13:01:38;;;;;;;26.63;15.18;;;7.10;96.20;;;;;;5101340;28;20040;-67
2023/03/03 13:04:12;;;;;;;23.75;14.05;;;7.20;96.10;;;;;;5104627;28;20072;-67
2023/03/03 13:06:43;;;;;;;20.83;12.88;;;7.10;96.00;;;;;;5100858;28;20111;-67